Time;durP1;ratioP1;P1;durP2;ratioP2;P2;SDS_P1;SDS_P2;PMS_P1;PMS_P2;Temp;Humidity;BMP_temperature;BMP_pressure;BME280_temperature;BME280_humidity;BME280_pressure;Samples;Min_cycle;Max_cycle;Signal;HPM_P1;HPM_P2
2023/06/10 00:02:11;;;;;;;7.63;5.00;;;;;;;19.96;100.00;95855.41;6145528;23;20012;-84
2023/06/10 00:04:37;;;;;;;8.02;5.13;;;;;;;19.68;100.00;95859.44;6121008;23;20005;-83
2023/06/10 00:07:10;;;;;;;7.93;5.50;;;;;;;19.85;100.00;95859.66;6121696;23;20017;-83
2023/06/10 00:09:37;;;;;;;9.05;5.00;;;;;;;19.53;100.00;95859.00;6121285;23;20037;-83
2023/06/10 00:12:07;;;;;;;8.32;5.43;;;;;;;19.68;100.00;95862.09;6144414;23;20016;-83
2023/06/10 00:14:35;;;;;;;7.43;5.18;;;;;;;19.89;100.00;95860.00;6146920;23;20037;-83
2023/06/10 00:17:00;;;;;;;7.93;5.07;;;;;;;19.96;100.00;95866.06;6119591;23;20009;-83
2023/06/10 00:19:28;;;;;;;9.95;4.85;;;;;;;20.11;100.00;95868.31;6145540;23;20457;-84
2023/06/10 00:21:57;;;;;;;6.95;5.28;;;;;;;20.06;100.00;95877.00;6121416;23;20092;-83
2023/06/10 00:24:23;;;;;;;7.78;5.10;;;;;;;20.15;100.00;95875.63;6145489;23;20002;-84
2023/06/10 00:26:49;;;;;;;7.53;5.43;;;;;;;19.94;100.00;95868.13;6145703;23;20075;-83
2023/06/10 00:29:15;;;;;;;7.20;5.05;;;;;;;20.09;100.00;95871.22;6149909;23;20349;-84
2023/06/10 00:31:41;;;;;;;6.53;4.78;;;;;;;20.02;100.00;95873.97;6152822;23;20001;-84
2023/06/10 00:34:07;;;;;;;6.93;5.15;;;;;;;20.02;100.00;95873.19;6152821;23;20037;-84
2023/06/10 00:36:33;;;;;;;9.52;5.28;;;;;;;19.82;100.00;95864.59;6127727;23;20005;-84
2023/06/10 00:38:59;;;;;;;7.55;5.43;;;;;;;19.82;100.00;95869.94;6152934;23;20002;-83
2023/06/10 00:41:26;;;;;;;6.15;4.82;;;;;;;19.70;100.00;95872.56;6128458;23;20012;-84
2023/06/10 00:44:04;;;;;;;6.18;4.85;;;;;;;19.78;100.00;95861.56;6153333;23;19998;-84
2023/06/10 00:46:32;;;;;;;7.05;4.65;;;;;;;19.71;100.00;95868.84;6127252;23;20013;-84
2023/06/10 00:48:58;;;;;;;6.85;4.43;;;;;;;19.74;100.00;95868.41;6143749;23;20088;-83
2023/06/10 00:51:23;;;;;;;7.30;4.32;;;;;;;19.66;100.00;95871.41;6138364;23;20005;-83
2023/06/10 00:53:49;;;;;;;5.72;4.35;;;;;;;19.55;100.00;95868.44;6113125;23;20072;-84
2023/06/10 00:56:15;;;;;;;6.82;4.28;;;;;;;19.48;100.00;95870.38;6138707;23;20100;-83
2023/06/10 00:58:41;;;;;;;6.05;4.32;;;;;;;19.53;100.00;95865.16;6112729;23;20011;-83
2023/06/10 01:01:06;;;;;;;8.23;4.95;;;;;;;19.18;100.00;95869.47;6114903;23;20005;-82
2023/06/10 01:03:36;;;;;;;11.03;4.93;;;;;;;19.33;100.00;95858.44;6094673;23;20007;-83
2023/06/10 01:06:37;;;;;;;6.87;5.07;;;;;;;19.39;100.00;95863.69;6118588;23;20006;-83
2023/06/10 01:09:24;;;;;;;6.75;4.68;;;;;;;19.19;100.00;95857.78;6118870;23;20012;-83
2023/06/10 01:12:02;;;;;;;7.65;4.57;;;;;;;19.04;100.00;95856.28;6142855;23;20037;-83
2023/06/10 01:14:29;;;;;;;7.15;4.57;;;;;;;18.96;100.00;95859.25;6142601;23;20009;-83
2023/06/10 01:16:54;;;;;;;7.50;4.70;;;;;;;19.14;100.00;95858.44;6146061;23;20080;-84
2023/06/10 01:19:23;;;;;;;6.55;4.45;;;;;;;18.96;100.00;95866.44;6127343;23;20088;-83
2023/06/10 01:21:55;;;;;;;7.07;4.53;;;;;;;19.21;100.00;95864.50;6127497;23;20008;-83
2023/06/10 01:24:24;;;;;;;8.57;5.65;;;;;;;19.28;100.00;95862.59;6152253;23;20088;-84
2023/06/10 01:26:53;;;;;;;9.30;5.90;;;;;;;19.26;100.00;95862.00;6127478;23;20461;-84
2023/06/10 01:29:26;;;;;;;11.80;7.45;;;;;;;19.15;100.00;95865.41;6127897;23;20434;-83
2023/06/10 01:32:06;;;;;;;8.80;6.85;;;;;;;19.03;100.00;95873.31;6152121;23;20033;-84
2023/06/10 01:34:36;;;;;;;9.10;5.82;;;;;;;19.11;100.00;95869.53;6126577;23;20007;-83
2023/06/10 01:37:03;;;;;;;8.53;6.17;;;;;;;19.27;100.00;95868.94;6126796;23;20005;-84
2023/06/10 01:39:30;;;;;;;8.43;5.30;;;;;;;19.03;100.00;95867.97;6127614;23;20010;-83
2023/06/10 01:41:56;;;;;;;7.18;4.95;;;;;;;18.95;100.00;95867.47;6127101;23;20009;-83
2023/06/10 01:44:23;;;;;;;6.97;4.55;;;;;;;18.89;100.00;95869.16;6151956;23;20052;-83
2023/06/10 01:47:07;;;;;;;7.43;5.27;;;;;;;18.73;100.00;95864.41;6124926;23;20009;-84
2023/06/10 01:49:33;;;;;;;6.93;4.90;;;;;;;18.82;100.00;95865.75;6119248;23;20013;-83
2023/06/10 01:51:59;;;;;;;6.97;5.00;;;;;;;18.72;100.00;95865.44;6119687;23;20315;-83
2023/06/10 01:54:25;;;;;;;7.93;5.27;;;;;;;18.91;100.00;95863.59;6142890;23;20008;-83
2023/06/10 01:56:51;;;;;;;6.73;4.23;;;;;;;18.83;100.00;95867.38;6118229;23;20005;-83
2023/06/10 01:59:16;;;;;;;5.90;4.33;;;;;;;18.89;100.00;95866.50;6142512;23;20715;-84
2023/06/10 02:01:42;;;;;;;9.17;4.70;;;;;;;18.97;100.00;95873.38;6093419;23;20045;-83
2023/06/10 02:04:09;;;;;;;7.27;5.40;;;;;;;18.91;100.00;95864.41;6119260;23;20014;-83
2023/06/10 02:06:35;;;;;;;7.67;5.23;;;;;;;18.71;100.00;95866.41;6119757;23;20005;-83
2023/06/10 02:09:02;;;;;;;6.60;4.70;;;;;;;18.58;100.00;95872.69;6120116;23;20005;-83
2023/06/10 02:11:29;;;;;;;6.50;4.73;;;;;;;18.84;100.00;95869.00;6144458;23;20013;-83
2023/06/10 02:13:54;;;;;;;6.30;4.67;;;;;;;18.76;100.00;95866.63;6143286;23;20049;-83
2023/06/10 02:16:21;;;;;;;9.23;5.10;;;;;;;18.87;100.00;95865.88;6143375;23;20006;-83
2023/06/10 02:18:48;;;;;;;6.90;5.13;;;;;;;18.67;100.00;95862.56;6126952;23;20060;-83
2023/06/10 02:21:14;;;;;;;8.30;5.27;;;;;;;18.60;100.00;95865.28;6127065;23;20490;-83
2023/06/10 02:23:40;;;;;;;6.50;5.23;;;;;;;18.67;100.00;95867.91;6126748;23;20037;-83
2023/06/10 02:26:05;;;;;;;8.13;5.23;;;;;;;18.67;100.00;95863.38;6154417;23;20014;-83
2023/06/10 02:28:31;;;;;;;7.37;4.80;;;;;;;18.75;100.00;95865.00;6128759;23;20048;-83
2023/06/10 02:30:59;;;;;;;6.83;4.70;;;;;;;18.58;100.00;95868.19;6153792;23;20009;-83
2023/06/10 02:33:25;;;;;;;7.57;5.33;;;;;;;18.58;100.00;95870.84;6129605;23;20457;-83
2023/06/10 02:35:51;;;;;;;7.20;4.80;;;;;;;18.58;100.00;95865.53;6128464;23;20005;-83
2023/06/10 02:38:29;;;;;;;7.33;5.67;;;;;;;18.66;100.00;95866.28;6153578;23;20016;-84
2023/06/10 02:40:56;;;;;;;8.40;5.80;;;;;;;18.68;100.00;95869.50;6129809;23;20028;-84
2023/06/10 02:43:23;;;;;;;6.83;5.13;;;;;;;18.60;100.00;95876.75;6135976;23;20002;-83
2023/06/10 02:45:48;;;;;;;7.73;5.60;;;;;;;18.52;100.00;95866.38;6166202;23;20005;-83
2023/06/10 02:48:16;;;;;;;7.00;5.13;;;;;;;18.49;100.00;95872.16;6135948;23;20525;-83
2023/06/10 02:50:42;;;;;;;7.70;5.20;;;;;;;18.39;100.00;95887.78;6162191;23;20032;-83
2023/06/10 02:53:17;;;;;;;8.80;5.37;;;;;;;18.31;100.00;95891.56;6097313;23;20013;-83
2023/06/10 02:55:48;;;;;;;8.67;5.60;;;;;;;18.18;100.00;95885.50;6147050;23;20025;-84
2023/06/10 02:58:16;;;;;;;7.63;5.37;;;;;;;18.25;100.00;95889.75;6147977;23;20426;-83
2023/06/10 03:00:43;;;;;;;7.90;6.07;;;;;;;18.33;100.00;95894.78;6145102;23;20001;-83
2023/06/10 03:03:10;;;;;;;7.57;5.80;;;;;;;18.32;100.00;95887.03;6145287;23;20009;-83
2023/06/10 03:05:44;;;;;;;7.33;5.63;;;;;;;18.26;100.00;95891.38;6143500;23;20330;-83
2023/06/10 03:08:10;;;;;;;8.33;5.27;;;;;;;18.36;100.00;95893.56;6144506;23;20663;-83
2023/06/10 03:10:39;;;;;;;8.90;5.73;;;;;;;18.42;100.00;95887.38;6121032;23;20043;-83
2023/06/10 03:13:05;;;;;;;10.60;6.20;;;;;;;18.34;100.00;95880.47;6121223;23;20323;-83
2023/06/10 03:15:32;;;;;;;7.40;5.57;;;;;;;18.28;100.00;95881.31;6120738;23;20009;-83
2023/06/10 03:18:00;;;;;;;7.93;6.03;;;;;;;18.19;100.00;95879.16;6152204;23;20873;-83
2023/06/10 03:20:27;;;;;;;9.17;6.87;;;;;;;18.13;100.00;95884.28;6154411;23;20009;-84
2023/06/10 03:22:53;;;;;;;9.57;6.23;;;;;;;17.98;100.00;95891.75;6130233;23;20028;-83
2023/06/10 03:25:21;;;;;;;7.17;5.43;;;;;;;18.02;100.00;95887.63;6129025;23;19997;-83
2023/06/10 03:27:50;;;;;;;7.77;6.00;;;;;;;18.12;100.00;95893.31;6129552;23;20009;-84
2023/06/10 03:30:18;;;;;;;7.67;5.53;;;;;;;17.93;100.00;95891.56;6132682;23;20080;-83
2023/06/10 03:32:45;;;;;;;8.67;5.67;;;;;;;18.14;100.00;95891.25;6104486;23;20005;-83
2023/06/10 03:35:15;;;;;;;7.57;5.83;;;;;;;18.47;100.00;95892.84;6127645;23;20394;-83
2023/06/10 03:37:41;;;;;;;8.27;6.10;;;;;;;18.59;100.00;95893.78;6152770;23;20016;-84
2023/06/10 03:40:08;;;;;;;9.33;5.80;;;;;;;18.45;100.00;95894.13;6104219;23;20005;-84
2023/06/10 03:42:35;;;;;;;7.63;5.50;;;;;;;18.57;100.00;95887.84;6128593;23;20453;-83
2023/06/10 03:45:02;;;;;;;8.70;5.40;;;;;;;18.73;100.00;95893.69;6152993;23;20001;-84
2023/06/10 03:47:35;;;;;;;8.63;5.30;;;;;;;18.80;100.00;95895.25;6148692;23;20047;-83
2023/06/10 03:50:07;;;;;;;8.53;6.30;;;;;;;18.69;100.00;95897.81;6120887;23;20025;-83
2023/06/10 03:52:34;;;;;;;7.73;5.60;;;;;;;18.46;100.00;95901.88;6120613;23;20071;-83
2023/06/10 03:55:00;;;;;;;9.43;5.73;;;;;;;18.65;100.00;95902.75;6140673;23;20020;-83
2023/06/10 03:57:26;;;;;;;8.60;5.80;;;;;;;18.77;100.00;95901.03;6140266;23;20001;-84
2023/06/10 03:59:51;;;;;;;8.80;5.90;;;;;;;18.71;100.00;95901.88;6140243;23;20080;-83
2023/06/10 04:02:18;;;;;;;7.40;5.30;;;;;;;18.78;100.00;95904.53;6116130;23;20016;-83
2023/06/10 04:04:44;;;;;;;7.50;5.57;;;;;;;18.83;100.00;95912.66;6116415;23;20422;-83
2023/06/10 04:07:10;;;;;;;7.97;5.40;;;;;;;19.00;100.00;95910.25;6140892;23;20024;-83
2023/06/10 04:09:36;;;;;;;10.47;5.93;;;;;;;19.04;100.00;95914.09;6141910;23;20010;-83
2023/06/10 04:12:02;;;;;;;8.23;6.00;;;;;;;18.92;100.00;95905.22;6141161;23;20024;-83
2023/06/10 04:14:29;;;;;;;9.07;6.70;;;;;;;18.82;100.00;95908.38;6117229;23;20016;-83
2023/06/10 04:16:54;;;;;;;6.80;5.37;;;;;;;19.14;100.00;95911.75;6142171;23;20009;-83
2023/06/10 04:19:20;;;;;;;7.67;5.67;;;;;;;19.21;100.00;95912.47;6122241;23;20033;-84
2023/06/10 04:21:46;;;;;;;8.47;6.23;;;;;;;18.96;100.00;95917.06;6119621;23;20009;-83
2023/06/10 04:24:12;;;;;;;8.23;5.87;;;;;;;19.14;100.00;95916.25;6149863;23;20060;-84
2023/06/10 04:26:38;;;;;;;8.60;6.23;;;;;;;19.25;100.00;95924.34;6128735;23;20091;-83
2023/06/10 04:29:04;;;;;;;8.30;6.10;;;;;;;19.08;100.00;95921.44;6152953;23;20002;-83
2023/06/10 04:31:32;;;;;;;8.50;6.40;;;;;;;19.34;100.00;95922.19;6128193;23;20021;-83
2023/06/10 04:33:58;;;;;;;7.53;5.77;;;;;;;19.39;100.00;95925.03;6153282;23;20370;-83
2023/06/10 04:36:24;;;;;;;7.40;5.67;;;;;;;19.35;100.00;95918.50;6154048;23;20028;-84
2023/06/10 04:38:52;;;;;;;7.80;5.70;;;;;;;19.35;100.00;95918.50;6152859;23;20005;-83
2023/06/10 04:41:18;;;;;;;9.47;6.00;;;;;;;19.35;100.00;95912.34;6177791;23;20057;-83
2023/06/10 04:43:44;;;;;;;7.97;5.60;;;;;;;19.59;100.00;95919.47;6153332;23;20001;-83
2023/06/10 04:46:24;;;;;;;8.87;5.63;;;;;;;19.93;100.00;95917.22;6135938;23;20349;-83
2023/06/10 04:48:50;;;;;;;9.00;6.63;;;;;;;19.87;100.00;95910.94;6119719;23;20088;-83
2023/06/10 04:51:16;;;;;;;7.70;6.07;;;;;;;19.73;100.00;95917.47;6144262;23;20010;-83
2023/06/10 04:53:42;;;;;;;7.67;5.70;;;;;;;20.08;100.00;95917.63;6142898;23;20330;-83
2023/06/10 04:56:08;;;;;;;8.17;6.17;;;;;;;20.29;100.00;95916.31;6121007;23;20005;-84
2023/06/10 04:58:34;;;;;;;7.85;6.22;;;;;;;20.33;100.00;95914.00;6091632;23;20048;-83
2023/06/10 05:00:59;;;;;;;13.13;6.35;;;;;;;20.16;100.00;95919.19;6094085;23;20084;-84
2023/06/10 05:03:26;;;;;;;8.52;6.32;;;;;;;20.11;100.00;95911.03;6141854;23;20005;-83
2023/06/10 05:05:51;;;;;;;8.23;6.20;;;;;;;20.33;100.00;95914.81;6120363;23;20016;-84
2023/06/10 05:08:18;;;;;;;9.18;6.55;;;;;;;20.51;100.00;95921.97;6145565;23;20013;-84
2023/06/10 05:10:43;;;;;;;8.20;6.15;;;;;;;20.68;100.00;95930.13;6145793;23;20009;-84
2023/06/10 05:13:09;;;;;;;8.13;6.00;;;;;;;20.71;100.00;95925.13;6145228;23;20072;-83
2023/06/10 05:15:35;;;;;;;8.73;5.93;;;;;;;20.47;100.00;95929.59;6120396;23;20045;-83
2023/06/10 05:18:02;;;;;;;7.70;6.15;;;;;;;20.64;100.00;95924.44;6146225;23;19998;-84
2023/06/10 05:20:28;;;;;;;9.93;6.95;;;;;;;20.60;100.00;95925.13;6121343;23;20009;-83
2023/06/10 05:22:54;;;;;;;7.97;6.00;;;;;;;21.24;100.00;95920.72;6147410;23;20032;-82
2023/06/10 05:25:19;;;;;;;9.10;7.05;;;;;;;20.95;100.00;95923.28;6123023;23;20434;-81
2023/06/10 05:27:46;;;;;;;8.18;6.18;;;;;;;21.11;100.00;95927.13;6123002;23;20005;-81
2023/06/10 05:30:12;;;;;;;7.97;6.07;;;;;;;21.11;100.00;95929.00;6147359;23;20076;-82
2023/06/10 05:32:38;;;;;;;8.13;6.22;;;;;;;21.10;100.00;95932.72;6147694;23;20083;-82
2023/06/10 05:35:04;;;;;;;8.35;5.78;;;;;;;21.02;100.00;95933.88;6121805;23;20075;-82
2023/06/10 05:37:30;;;;;;;9.25;6.35;;;;;;;21.24;100.00;95920.72;6120387;23;20089;-82
2023/06/10 05:39:55;;;;;;;8.43;6.50;;;;;;;21.76;100.00;95926.13;6120085;23;20005;-82
2023/06/10 05:42:21;;;;;;;8.40;6.43;;;;;;;21.95;100.00;95931.31;6119975;23;20089;-82
2023/06/10 05:44:47;;;;;;;9.02;5.95;;;;;;;22.05;100.00;95931.50;6150776;23;19997;-82
2023/06/10 05:47:13;;;;;;;8.50;6.30;;;;;;;21.97;100.00;95929.22;6131081;23;20405;-82
2023/06/10 05:49:38;;;;;;;8.23;6.43;;;;;;;22.18;100.00;95930.44;6120258;23;20713;-82
2023/06/10 05:52:04;;;;;;;8.15;5.97;;;;;;;21.84;100.00;95936.47;6119635;23;20028;-82
2023/06/10 05:54:35;;;;;;;7.82;6.35;;;;;;;22.41;100.00;95933.03;6145588;23;20014;-83
2023/06/10 05:57:00;;;;;;;8.55;6.50;;;;;;;22.56;100.00;95932.47;6144998;23;20009;-83
2023/06/10 05:59:26;;;;;;;9.55;5.95;;;;;;;22.72;100.00;95923.63;6147046;23;20002;-82
2023/06/10 06:01:55;;;;;;;8.70;6.55;;;;;;;22.75;100.00;95927.69;6148823;23;20001;-82
2023/06/10 06:04:20;;;;;;;21.80;11.63;;;;;;;23.55;100.00;95929.16;6125626;23;20013;-82
2023/06/10 06:06:49;;;;;;;9.00;7.05;;;;;;;23.88;100.00;95919.41;6151038;23;19998;-82
2023/06/10 06:09:14;;;;;;;10.35;7.80;;;;;;;24.04;100.00;95921.16;6126825;23;20379;-82
2023/06/10 06:11:41;;;;;;;7.70;6.38;;;;;;;23.34;100.00;95921.88;6126151;23;20064;-82
2023/06/10 06:14:07;;;;;;;10.35;7.40;;;;;;;24.00;100.00;95914.69;6151215;23;20018;-82
2023/06/10 06:16:41;;;;;;;9.43;6.35;;;;;;;24.36;100.00;95918.56;6150694;23;20128;-82
2023/06/10 06:19:07;;;;;;;8.15;6.28;;;;;;;24.15;100.00;95917.56;6127605;23;20096;-83
2023/06/10 06:21:32;;;;;;;8.15;6.35;;;;;;;24.59;100.00;95920.16;6105088;23;20496;-82
2023/06/10 06:24:07;;;;;;;7.63;6.18;;;;;;;25.43;100.00;95917.81;6153966;23;20731;-82
2023/06/10 06:26:33;;;;;;;9.60;5.60;;;;;;;24.85;100.00;95926.56;6129442;23;20006;-82
2023/06/10 06:28:58;;;;;;;7.68;5.85;;;;;;;25.37;100.00;95927.75;6105105;23;20060;-82
2023/06/10 06:31:24;;;;;;;7.63;6.10;;;;;;;25.23;100.00;95922.00;6154373;23;20005;-82
2023/06/10 06:33:49;;;;;;;7.85;5.88;;;;;;;25.82;100.00;95926.38;6131030;23;20018;-82
2023/06/10 06:36:15;;;;;;;11.65;6.93;;;;;;;26.41;100.00;95922.50;6130649;23;20051;-82
2023/06/10 06:38:41;;;;;;;7.07;5.43;;;;;;;26.88;100.00;95919.59;6130796;23;20006;-82
2023/06/10 06:41:06;;;;;;;8.25;6.00;;;;;;;26.31;100.00;95923.28;6130781;23;20060;-82
2023/06/10 06:43:32;;;;;;;8.90;6.47;;;;;;;26.78;100.00;95928.50;6130954;23;20055;-82
2023/06/10 06:46:16;;;;;;;6.65;5.60;;;;;;;26.49;100.00;95928.22;6156265;23;20390;-83
2023/06/10 06:48:45;;;;;;;8.07;6.47;;;;;;;26.72;100.00;95926.88;6102150;23;20048;-82
2023/06/10 06:51:10;;;;;;;8.27;5.68;;;;;;;27.63;100.00;95929.75;6150828;23;20013;-82
2023/06/10 06:53:36;;;;;;;7.30;5.70;;;;;;;28.04;100.00;95916.16;6149933;23;20327;-82
2023/06/10 06:56:02;;;;;;;12.93;7.60;;;;;;;28.06;100.00;95916.66;6125791;23;20431;-82
2023/06/10 06:58:28;;;;;;;8.77;5.90;;;;;;;28.20;100.00;95921.19;6151884;23;20012;-83
2023/06/10 07:00:53;;;;;;;9.65;6.72;;;;;;;29.20;92.98;95929.97;6125833;23;20489;-82
2023/06/10 07:03:21;;;;;;;8.70;6.00;;;;;;;28.51;92.26;95933.75;6125735;23;20080;-82
2023/06/10 07:05:47;;;;;;;6.57;5.25;;;;;;;28.19;97.56;95924.97;6150045;23;20001;-84
2023/06/10 07:08:12;;;;;;;8.05;5.25;;;;;;;29.01;91.09;95934.50;6101519;23;20005;-83
2023/06/10 07:10:38;;;;;;;7.45;5.20;;;;;;;29.13;91.79;95934.91;6124548;23;20044;-82
2023/06/10 07:13:04;;;;;;;9.20;5.82;;;;;;;29.47;87.64;95942.97;6123481;23;20005;-81
2023/06/10 07:15:30;;;;;;;6.70;4.88;;;;;;;29.07;92.11;95941.44;6124164;23;20105;-80
2023/06/10 07:17:55;;;;;;;6.68;5.43;;;;;;;29.45;88.17;95936.25;6102238;23;20064;-81
2023/06/10 07:20:21;;;;;;;8.48;5.65;;;;;;;29.06;87.49;95937.94;6153528;23;20010;-80
2023/06/10 07:22:47;;;;;;;5.93;5.07;;;;;;;29.80;85.33;95933.16;6153738;23;20084;-80
2023/06/10 07:25:16;;;;;;;8.00;5.50;;;;;;;30.35;80.54;95937.38;6129116;23;20037;-80
2023/06/10 07:27:42;;;;;;;6.80;5.38;;;;;;;30.50;78.04;95934.47;6129291;23;20016;-80
2023/06/10 07:30:08;;;;;;;14.05;5.40;;;;;;;30.17;80.31;95941.66;6128692;23;20401;-81
2023/06/10 07:32:38;;;;;;;8.55;5.63;;;;;;;29.19;84.41;95944.59;6153436;23;20044;-80
2023/06/10 07:35:09;;;;;;;8.77;5.28;;;;;;;29.20;84.44;95945.41;6128850;23;20473;-77
2023/06/10 07:37:35;;;;;;;7.30;5.22;;;;;;;28.86;87.48;95947.00;6128110;23;20005;-78
2023/06/10 07:40:02;;;;;;;8.07;5.25;;;;;;;30.48;79.85;95937.47;6153116;23;20032;-78
2023/06/10 07:42:28;;;;;;;6.72;5.10;;;;;;;30.21;78.66;95935.38;6153229;23;20339;-78
2023/06/10 07:44:53;;;;;;;9.05;5.28;;;;;;;31.59;71.37;95922.38;6128341;23;20005;-78
2023/06/10 07:47:19;;;;;;;7.15;4.78;;;;;;;31.76;67.67;95934.53;6126686;23;20015;-78
2023/06/10 07:49:44;;;;;;;7.32;5.28;;;;;;;31.65;65.87;95925.78;6148012;23;20020;-78
2023/06/10 07:52:10;;;;;;;5.43;4.57;;;;;;;31.81;62.81;95931.75;6149101;23;20063;-80
2023/06/10 07:54:36;;;;;;;9.65;4.45;;;;;;;32.28;60.27;95927.78;6123271;23;20013;-80
2023/06/10 07:57:01;;;;;;;5.72;4.07;;;;;;;32.92;55.61;95924.19;6148657;23;20712;-80
2023/06/10 07:59:28;;;;;;;6.40;3.85;;;;;;;32.57;59.07;95930.16;6123177;23;20037;-81
2023/06/10 08:01:57;;;;;;;5.70;4.50;;;;;;;31.96;61.55;95931.47;6123716;23;19998;-80
2023/06/10 08:04:22;;;;;;;9.02;4.18;;;;;;;31.40;62.05;95940.66;6124542;23;20005;-81
2023/06/10 08:06:48;;;;;;;9.50;4.47;;;;;;;32.98;54.69;95936.59;6123371;23;20476;-81
2023/06/10 08:09:13;;;;;;;8.38;4.60;;;;;;;32.30;59.44;95938.38;6148794;23;20012;-81
2023/06/10 08:11:39;;;;;;;6.90;4.32;;;;;;;31.13;59.72;95935.94;6123478;23;20017;-81
2023/06/10 08:14:05;;;;;;;5.82;4.60;;;;;;;31.64;66.13;95933.13;6123192;23;20434;-79
2023/06/10 08:16:30;;;;;;;6.97;4.28;;;;;;;33.58;52.17;95935.38;6099121;23;20068;-79
2023/06/10 08:18:56;;;;;;;5.53;4.50;;;;;;;32.19;60.64;95945.13;6122444;23;20017;-80
2023/06/10 08:21:22;;;;;;;5.85;4.60;;;;;;;33.85;51.04;95939.81;6098793;23;20013;-79
2023/06/10 08:23:47;;;;;;;5.72;4.40;;;;;;;32.68;52.90;95935.38;6146394;23;20028;-78
2023/06/10 08:26:15;;;;;;;5.80;4.07;;;;;;;33.31;48.59;95937.13;6122115;23;20897;-79
2023/06/10 08:28:40;;;;;;;5.43;4.10;;;;;;;31.87;55.38;95936.81;6121276;23;20012;-79
2023/06/10 08:31:06;;;;;;;5.43;4.10;;;;;;;33.17;54.02;95930.97;6120013;23;20006;-80
2023/06/10 08:33:31;;;;;;;5.70;4.15;;;;;;;33.65;47.92;95938.44;6144625;23;20009;-80
2023/06/10 08:35:57;;;;;;;7.38;3.75;;;;;;;32.97;52.92;95941.25;6144423;23;20438;-80
2023/06/10 08:38:23;;;;;;;6.13;4.25;;;;;;;34.34;45.34;95925.03;6144965;23;20012;-80
2023/06/10 08:40:56;;;;;;;5.95;4.30;;;;;;;35.39;45.09;95932.09;6120761;23;20014;-80
2023/06/10 08:43:37;;;;;;;5.80;3.95;;;;;;;34.41;46.58;95939.03;6120774;23;20009;-80
2023/06/10 08:46:03;;;;;;;6.70;5.53;;;;;;;31.92;54.20;95938.59;6121746;23;20016;-80
2023/06/10 08:48:31;;;;;;;6.95;4.78;;;;;;;31.75;57.92;95939.19;6123831;23;20009;-80
2023/06/10 08:50:59;;;;;;;6.50;4.47;;;;;;;33.60;50.38;95931.19;6122871;23;20430;-80
2023/06/10 08:53:29;;;;;;;6.15;4.75;;;;;;;30.57;67.17;95940.31;6122748;23;20482;-80
2023/06/10 08:56:00;;;;;;;8.80;4.78;;;;;;;32.02;61.63;95927.50;6152725;23;20020;-80
2023/06/10 08:58:27;;;;;;;6.47;4.95;;;;;;;32.77;55.12;95928.88;6147291;23;20414;-80
2023/06/10 09:00:54;;;;;;;7.00;4.90;;;;;;;32.49;57.21;95920.00;6148632;23;20002;-79
2023/06/10 09:03:21;;;;;;;6.93;4.80;;;;;;;31.72;59.34;95926.19;6123605;23;20381;-80
2023/06/10 09:05:48;;;;;;;8.02;4.93;;;;;;;32.86;54.78;95924.31;6147552;23;20446;-79
2023/06/10 09:08:16;;;;;;;8.32;5.10;;;;;;;31.76;61.05;95920.94;6148772;23;20068;-80
2023/06/10 09:10:42;;;;;;;6.68;5.47;;;;;;;30.49;66.44;95933.66;6124209;23;20410;-79
2023/06/10 09:13:08;;;;;;;6.75;4.90;;;;;;;31.63;63.11;95920.66;6147380;23;20008;-80
2023/06/10 09:15:41;;;;;;;7.78;5.95;;;;;;;31.07;62.42;95927.06;6123432;23;20009;-79
2023/06/10 09:18:10;;;;;;;6.30;4.95;;;;;;;31.85;57.60;95925.38;6123889;23;20005;-79
2023/06/10 09:20:38;;;;;;;6.25;5.35;;;;;;;31.39;64.39;95922.75;6123782;23;20031;-79
2023/06/10 09:23:04;;;;;;;8.15;4.47;;;;;;;31.88;61.19;95913.94;6102165;23;20056;-80
2023/06/10 09:25:38;;;;;;;6.65;4.35;;;;;;;33.49;53.48;95917.03;6127890;23;20013;-80
2023/06/10 09:28:12;;;;;;;7.75;5.13;;;;;;;34.76;46.28;95917.19;6154239;23;20737;-80
2023/06/10 09:30:39;;;;;;;33.08;7.25;;;;;;;34.52;46.83;95925.88;6152174;23;20009;-80
2023/06/10 09:33:14;;;;;;;6.78;4.88;;;;;;;34.40;43.61;95922.94;6154650;23;20095;-79
2023/06/10 09:35:46;;;;;;;47.33;9.05;;;;;;;33.56;45.65;95924.75;6152156;23;20362;-80
2023/06/10 09:38:13;;;;;;;;;;;;;;;35.02;45.90;95917.22;6128367;23;20349;-80
2023/06/10 09:40:52;;;;;;;8.63;5.25;;;;;;;34.97;44.95;95920.88;6128301;23;19979;-79
2023/06/10 09:43:18;;;;;;;6.38;4.70;;;;;;;34.31;45.74;95920.22;6127510;23;20040;-77
2023/06/10 09:45:44;;;;;;;5.90;4.15;;;;;;;34.57;43.98;95916.72;6152261;23;20052;-77
2023/06/10 09:48:10;;;;;;;12.55;6.22;;;;;;;34.87;43.26;95915.75;6148794;23;20017;-80
2023/06/10 09:50:43;;;;;;;8.20;4.40;;;;;;;34.24;40.86;95922.63;6124074;23;20620;-78
2023/06/10 09:53:11;;;;;;;7.05;4.60;;;;;;;32.75;46.00;95919.41;6147765;23;20040;-78
2023/06/10 09:55:39;;;;;;;6.35;4.50;;;;;;;32.00;51.89;95921.59;6144253;23;20005;-79
2023/06/10 09:58:04;;;;;;;6.53;4.10;;;;;;;32.03;53.31;95929.16;6119401;23;20460;-78
2023/06/10 10:00:32;;;;;;;8.85;5.07;;;;;;;32.59;49.99;95918.97;6119191;23;20009;-78
2023/06/10 10:03:07;;;;;;;9.40;4.30;;;;;;;32.26;55.31;95921.84;6119527;23;20005;-78
2023/06/10 10:05:33;;;;;;;20.95;5.90;;;;;;;33.25;48.07;95913.84;6120058;23;20005;-78
2023/06/10 10:08:05;;;;;;;10.00;4.53;;;;;;;33.77;43.71;95909.47;6119098;23;20555;-79
2023/06/10 10:10:31;;;;;;;4.93;3.58;;;;;;;33.26;45.43;95908.06;6120418;23;20006;-79
2023/06/10 10:12:57;;;;;;;16.58;5.90;;;;;;;32.32;50.63;95912.44;6143691;23;20006;-78
2023/06/10 10:15:28;;;;;;;5.20;3.67;;;;;;;30.91;55.67;95915.66;6118565;23;20033;-79
2023/06/10 10:18:09;;;;;;;5.97;4.22;;;;;;;33.69;46.32;95912.16;6121619;23;20016;-77
2023/06/10 10:20:41;;;;;;;11.85;4.93;;;;;;;32.48;50.86;95907.50;6147091;23;20001;-80
2023/06/10 10:23:08;;;;;;;6.43;4.28;;;;;;;32.67;47.87;95903.81;6122576;23;20031;-80
2023/06/10 10:25:41;;;;;;;6.45;4.82;;;;;;;31.14;55.64;95897.63;6150569;23;20010;-80
2023/06/10 10:28:10;;;;;;;5.43;4.05;;;;;;;32.83;49.70;95902.31;6152015;23;20008;-79
2023/06/10 10:30:40;;;;;;;10.38;5.05;;;;;;;33.67;47.71;95917.94;6126962;23;20064;-79
2023/06/10 10:33:12;;;;;;;5.72;4.30;;;;;;;32.40;45.76;95902.78;6151755;23;20010;-81
2023/06/10 10:35:38;;;;;;;9.63;4.72;;;;;;;34.08;43.31;95900.44;6126282;23;20014;-79
2023/06/10 10:38:04;;;;;;;22.88;5.22;;;;;;;33.87;42.38;95902.91;6151863;23;20021;-79
2023/06/10 10:40:45;;;;;;;6.05;3.78;;;;;;;32.95;44.06;95899.84;6151728;23;20044;-80
2023/06/10 10:43:12;;;;;;;29.52;5.28;;;;;;;34.26;42.86;95895.78;6151410;23;20342;-82
2023/06/10 10:45:37;;;;;;;105.22;10.68;;;;;;;33.92;42.20;95897.31;6127618;23;20002;-84
2023/06/10 10:48:09;;;;;;;75.30;8.98;;;;;;;32.90;44.34;95894.53;6126620;23;20051;-81
2023/06/10 10:50:38;;;;;;;32.47;5.95;;;;;;;34.30;40.14;95896.75;6148967;23;20013;-82
2023/06/10 10:53:05;;;;;;;7.15;3.70;;;;;;;35.74;35.02;95899.16;6149447;23;20013;-79
2023/06/10 10:55:31;;;;;;;4.65;3.60;;;;;;;32.76;39.78;95897.31;6145717;23;20013;-79
2023/06/10 10:58:07;;;;;;;6.53;3.25;;;;;;;32.99;43.39;95897.34;6096608;23;20147;-79
2023/06/10 11:00:35;;;;;;;12.98;3.65;;;;;;;33.14;42.19;95898.88;6145786;23;20508;-81
2023/06/10 11:03:03;;;;;;;24.67;5.72;;;;;;;33.60;41.55;95905.84;6146657;23;20134;-79
2023/06/10 11:05:49;;;;;;;4.68;3.22;;;;;;;33.55;41.24;95901.34;6122272;23;20032;-78
2023/06/10 11:08:35;;;;;;;7.10;3.40;;;;;;;31.94;46.09;95895.59;6121705;23;20001;-78
2023/06/10 11:11:00;;;;;;;7.70;3.28;;;;;;;32.93;42.50;95893.94;6097306;23;20013;-80
2023/06/10 11:13:27;;;;;;;12.90;3.67;;;;;;;34.05;41.14;95903.00;6146714;23;20524;-89
2023/06/10 11:16:01;;;;;;;4.65;2.85;;;;;;;34.22;37.51;95890.16;6147971;23;20475;-84
2023/06/10 11:18:39;;;;;;;4.13;3.10;;;;;;;34.47;35.87;95894.06;6100617;23;20009;-84
2023/06/10 11:21:07;;;;;;;3.13;2.58;;;;;;;34.45;35.72;95887.31;6148893;23;20040;-86
2023/06/10 11:23:43;;;;;;;23.65;4.10;;;;;;;33.79;38.27;95892.78;6125347;23;20006;-88
2023/06/10 11:26:17;;;;;;;6.13;3.20;;;;;;;32.48;44.46;95899.34;6129554;23;20006;-89
2023/06/10 11:28:50;;;;;;;5.05;3.25;;;;;;;32.65;44.89;95892.44;6131646;23;20056;-89
2023/06/10 11:35:35;;;;;;;4.45;3.65;;;;;;;33.42;40.18;95888.59;6156432;23;20024;-91